sensor_id;sensor_type;location;lat;lon;timestamp;pressure;altitude;pressure_sealevel;temperature;humidity
75247;BME280;63844;50.042;19.224;2024-01-07T00:00:39;98322.15;;;-0.48;100.00
75247;BME280;63844;50.042;19.224;2024-01-07T00:02:35;98323.33;;;-0.52;100.00
75247;BME280;63844;50.042;19.224;2024-01-07T00:04:14;98322.46;;;-0.52;100.00
75247;BME280;63844;50.042;19.224;2024-01-07T00:05:51;98326.00;;;-0.54;100.00
75247;BME280;63844;50.042;19.224;2024-01-07T00:07:28;98324.12;;;-0.55;100.00
75247;BME280;63844;50.042;19.224;2024-01-07T00:09:04;98329.37;;;-0.62;100.00
75247;BME280;63844;50.042;19.224;2024-01-07T00:10:41;98331.00;;;-0.64;100.00
75247;BME280;63844;50.042;19.224;2024-01-07T00:12:17;98331.84;;;-0.63;100.00
75247;BME280;63844;50.042;19.224;2024-01-07T00:13:54;98334.88;;;-0.65;100.00
75247;BME280;63844;50.042;19.224;2024-01-07T00:15:30;98332.59;;;-0.64;100.00
75247;BME280;63844;50.042;19.224;2024-01-07T00:17:07;98339.34;;;-0.63;100.00
75247;BME280;63844;50.042;19.224;2024-01-07T00:18:45;98333.48;;;-0.71;100.00
75247;BME280;63844;50.042;19.224;2024-01-07T00:20:22;98333.96;;;-0.70;100.00
75247;BME280;63844;50.042;19.224;2024-01-07T00:21:58;98335.52;;;-0.69;100.00
75247;BME280;63844;50.042;19.224;2024-01-07T00:23:35;98331.71;;;-0.70;100.00
75247;BME280;63844;50.042;19.224;2024-01-07T00:25:11;98336.31;;;-0.73;100.00
75247;BME280;63844;50.042;19.224;2024-01-07T00:26:48;98333.92;;;-0.74;100.00
75247;BME280;63844;50.042;19.224;2024-01-07T00:28:24;98335.70;;;-0.75;100.00
75247;BME280;63844;50.042;19.224;2024-01-07T00:30:07;98340.42;;;-0.76;100.00
75247;BME280;63844;50.042;19.224;2024-01-07T00:31:43;98336.55;;;-0.80;100.00
75247;BME280;63844;50.042;19.224;2024-01-07T00:33:20;98340.23;;;-0.81;100.00
75247;BME280;63844;50.042;19.224;2024-01-07T00:34:58;98343.95;;;-0.83;100.00
75247;BME280;63844;50.042;19.224;2024-01-07T00:36:35;98341.62;;;-0.81;100.00
75247;BME280;63844;50.042;19.224;2024-01-07T00:38:11;98346.06;;;-0.85;100.00
75247;BME280;63844;50.042;19.224;2024-01-07T00:39:51;98348.70;;;-0.91;100.00
75247;BME280;63844;50.042;19.224;2024-01-07T00:41:27;98349.97;;;-0.93;100.00
75247;BME280;63844;50.042;19.224;2024-01-07T00:43:07;98352.52;;;-0.91;100.00
75247;BME280;63844;50.042;19.224;2024-01-07T00:44:44;98355.34;;;-0.92;100.00
75247;BME280;63844;50.042;19.224;2024-01-07T00:46:20;98353.77;;;-0.92;100.00
75247;BME280;63844;50.042;19.224;2024-01-07T00:47:57;98355.27;;;-0.90;100.00
75247;BME280;63844;50.042;19.224;2024-01-07T00:49:34;98356.80;;;-0.95;100.00
75247;BME280;63844;50.042;19.224;2024-01-07T00:51:10;98362.68;;;-0.94;100.00
75247;BME280;63844;50.042;19.224;2024-01-07T00:52:47;98363.83;;;-0.92;100.00
75247;BME280;63844;50.042;19.224;2024-01-07T00:54:23;98363.14;;;-0.98;100.00
75247;BME280;63844;50.042;19.224;2024-01-07T00:56:00;98365.23;;;-0.98;100.00
75247;BME280;63844;50.042;19.224;2024-01-07T00:57:44;98364.73;;;-0.99;100.00
75247;BME280;63844;50.042;19.224;2024-01-07T00:59:21;98363.88;;;-0.99;100.00
75247;BME280;63844;50.042;19.224;2024-01-07T01:01:00;98365.27;;;-0.99;100.00
75247;BME280;63844;50.042;19.224;2024-01-07T01:02:37;98371.35;;;-0.99;100.00
75247;BME280;63844;50.042;19.224;2024-01-07T01:04:13;98368.87;;;-0.98;100.00
75247;BME280;63844;50.042;19.224;2024-01-07T01:05:50;98369.40;;;-0.98;100.00
75247;BME280;63844;50.042;19.224;2024-01-07T01:07:29;98371.64;;;-0.97;100.00
75247;BME280;63844;50.042;19.224;2024-01-07T01:09:18;98373.76;;;-0.99;100.00
75247;BME280;63844;50.042;19.224;2024-01-07T01:10:54;98376.62;;;-1.01;100.00
75247;BME280;63844;50.042;19.224;2024-01-07T01:12:31;98377.23;;;-1.04;100.00
75247;BME280;63844;50.042;19.224;2024-01-07T01:14:07;98374.77;;;-1.03;100.00
75247;BME280;63844;50.042;19.224;2024-01-07T01:15:44;98374.71;;;-1.01;100.00
75247;BME280;63844;50.042;19.224;2024-01-07T01:17:26;98376.52;;;-1.04;100.00
75247;BME280;63844;50.042;19.224;2024-01-07T01:19:09;98372.55;;;-1.04;100.00
75247;BME280;63844;50.042;19.224;2024-01-07T01:20:48;98373.52;;;-1.08;100.00
75247;BME280;63844;50.042;19.224;2024-01-07T01:22:25;98377.91;;;-1.10;100.00
75247;BME280;63844;50.042;19.224;2024-01-07T01:24:02;98375.81;;;-1.09;100.00
75247;BME280;63844;50.042;19.224;2024-01-07T01:25:40;98377.78;;;-1.11;100.00
75247;BME280;63844;50.042;19.224;2024-01-07T01:27:19;98378.98;;;-1.10;100.00
75247;BME280;63844;50.042;19.224;2024-01-07T01:28:56;98385.73;;;-1.10;100.00
75247;BME280;63844;50.042;19.224;2024-01-07T01:30:32;98380.22;;;-1.11;100.00
75247;BME280;63844;50.042;19.224;2024-01-07T01:32:09;98382.61;;;-1.10;100.00
75247;BME280;63844;50.042;19.224;2024-01-07T01:33:46;98382.60;;;-1.10;100.00
75247;BME280;63844;50.042;19.224;2024-01-07T01:35:22;98384.18;;;-1.10;100.00
75247;BME280;63844;50.042;19.224;2024-01-07T01:36:59;98380.30;;;-1.15;100.00
75247;BME280;63844;50.042;19.224;2024-01-07T01:38:39;98382.59;;;-1.16;100.00
75247;BME280;63844;50.042;19.224;2024-01-07T01:40:18;98383.66;;;-1.17;100.00
75247;BME280;63844;50.042;19.224;2024-01-07T01:41:55;98387.05;;;-1.20;100.00
75247;BME280;63844;50.042;19.224;2024-01-07T01:43:33;98387.75;;;-1.21;100.00
75247;BME280;63844;50.042;19.224;2024-01-07T01:45:09;98386.79;;;-1.23;100.00
75247;BME280;63844;50.042;19.224;2024-01-07T01:46:46;98389.27;;;-1.24;100.00
75247;BME280;63844;50.042;19.224;2024-01-07T01:48:24;98390.05;;;-1.28;100.00
75247;BME280;63844;50.042;19.224;2024-01-07T01:50:01;98391.52;;;-1.31;100.00
75247;BME280;63844;50.042;19.224;2024-01-07T01:51:38;98391.73;;;-1.26;100.00
75247;BME280;63844;50.042;19.224;2024-01-07T01:53:24;98389.71;;;-1.28;100.00
75247;BME280;63844;50.042;19.224;2024-01-07T01:55:04;98390.73;;;-1.33;100.00
75247;BME280;63844;50.042;19.224;2024-01-07T01:56:40;98389.74;;;-1.36;100.00
75247;BME280;63844;50.042;19.224;2024-01-07T01:58:19;98390.55;;;-1.34;100.00
75247;BME280;63844;50.042;19.224;2024-01-07T01:59:55;98390.78;;;-1.36;100.00
75247;BME280;63844;50.042;19.224;2024-01-07T02:01:32;98388.39;;;-1.37;100.00
75247;BME280;63844;50.042;19.224;2024-01-07T02:03:09;98388.00;;;-1.35;100.00
75247;BME280;63844;50.042;19.224;2024-01-07T02:04:46;98391.48;;;-1.36;100.00
75247;BME280;63844;50.042;19.224;2024-01-07T02:06:23;98392.14;;;-1.34;100.00
75247;BME280;63844;50.042;19.224;2024-01-07T02:08:00;98386.38;;;-1.33;100.00
75247;BME280;63844;50.042;19.224;2024-01-07T02:09:36;98392.54;;;-1.37;100.00
75247;BME280;63844;50.042;19.224;2024-01-07T02:11:17;98393.23;;;-1.37;100.00
75247;BME280;63844;50.042;19.224;2024-01-07T02:12:54;98394.14;;;-1.38;100.00
75247;BME280;63844;50.042;19.224;2024-01-07T02:14:30;98396.37;;;-1.43;100.00
75247;BME280;63844;50.042;19.224;2024-01-07T02:16:07;98394.36;;;-1.46;100.00
75247;BME280;63844;50.042;19.224;2024-01-07T02:17:43;98397.12;;;-1.51;100.00
75247;BME280;63844;50.042;19.224;2024-01-07T02:19:21;98398.41;;;-1.54;100.00
75247;BME280;63844;50.042;19.224;2024-01-07T02:20:58;98398.79;;;-1.55;100.00
75247;BME280;63844;50.042;19.224;2024-01-07T02:22:34;98399.31;;;-1.56;100.00
75247;BME280;63844;50.042;19.224;2024-01-07T02:24:17;98399.77;;;-1.59;100.00
75247;BME280;63844;50.042;19.224;2024-01-07T02:25:54;98396.88;;;-1.62;100.00
75247;BME280;63844;50.042;19.224;2024-01-07T02:27:30;98397.75;;;-1.63;100.00
75247;BME280;63844;50.042;19.224;2024-01-07T02:29:07;98398.00;;;-1.65;100.00
75247;BME280;63844;50.042;19.224;2024-01-07T02:30:46;98399.19;;;-1.64;100.00
75247;BME280;63844;50.042;19.224;2024-01-07T02:32:32;98402.57;;;-1.67;100.00
75247;BME280;63844;50.042;19.224;2024-01-07T02:34:11;98404.70;;;-1.69;100.00
75247;BME280;63844;50.042;19.224;2024-01-07T02:35:50;98405.02;;;-1.68;100.00
75247;BME280;63844;50.042;19.224;2024-01-07T02:37:29;98406.42;;;-1.75;100.00
75247;BME280;63844;50.042;19.224;2024-01-07T02:39:06;98406.80;;;-1.76;100.00
75247;BME280;63844;50.042;19.224;2024-01-07T02:40:42;98407.31;;;-1.76;100.00
75247;BME280;63844;50.042;19.224;2024-01-07T02:42:19;98410.63;;;-1.77;100.00
75247;BME280;63844;50.042;19.224;2024-01-07T02:43:55;98405.92;;;-1.76;100.00
75247;BME280;63844;50.042;19.224;2024-01-07T02:45:35;98407.00;;;-1.77;100.00
75247;BME280;63844;50.042;19.224;2024-01-07T02:47:14;98408.92;;;-1.78;100.00
75247;BME280;63844;50.042;19.224;2024-01-07T02:48:52;98408.92;;;-1.77;100.00
75247;BME280;63844;50.042;19.224;2024-01-07T02:50:29;98406.15;;;-1.78;100.00
75247;BME280;63844;50.042;19.224;2024-01-07T02:52:07;98408.64;;;-1.80;100.00
75247;BME280;63844;50.042;19.224;2024-01-07T02:53:45;98407.71;;;-1.85;100.00
75247;BME280;63844;50.042;19.224;2024-01-07T02:55:22;98407.17;;;-1.84;99.98
75247;BME280;63844;50.042;19.224;2024-01-07T02:56:58;98408.52;;;-1.83;100.00
75247;BME280;63844;50.042;19.224;2024-01-07T02:58:35;98410.03;;;-1.87;100.00
75247;BME280;63844;50.042;19.224;2024-01-07T03:00:14;98411.59;;;-1.87;100.00
75247;BME280;63844;50.042;19.224;2024-01-07T03:01:51;98416.00;;;-1.90;100.00
75247;BME280;63844;50.042;19.224;2024-01-07T03:03:30;98413.44;;;-1.91;100.00
75247;BME280;63844;50.042;19.224;2024-01-07T03:05:12;98415.88;;;-1.92;100.00
75247;BME280;63844;50.042;19.224;2024-01-07T03:06:51;98415.89;;;-1.93;100.00
75247;BME280;63844;50.042;19.224;2024-01-07T03:08:30;98414.34;;;-1.93;100.00
75247;BME280;63844;50.042;19.224;2024-01-07T03:10:07;98410.85;;;-1.92;100.00
75247;BME280;63844;50.042;19.224;2024-01-07T03:11:44;98410.17;;;-1.93;100.00
75247;BME280;63844;50.042;19.224;2024-01-07T03:13:20;98412.81;;;-1.94;100.00
75247;BME280;63844;50.042;19.224;2024-01-07T03:14:57;98413.23;;;-1.97;100.00
75247;BME280;63844;50.042;19.224;2024-01-07T03:16:34;98415.09;;;-1.95;100.00
75247;BME280;63844;50.042;19.224;2024-01-07T03:18:10;98412.89;;;-1.97;100.00
75247;BME280;63844;50.042;19.224;2024-01-07T03:19:49;98417.48;;;-2.00;99.96
75247;BME280;63844;50.042;19.224;2024-01-07T03:21:26;98415.62;;;-2.03;99.67
75247;BME280;63844;50.042;19.224;2024-01-07T03:23:02;98411.80;;;-2.03;99.78
75247;BME280;63844;50.042;19.224;2024-01-07T03:24:44;98414.14;;;-2.06;99.69
75247;BME280;63844;50.042;19.224;2024-01-07T03:26:24;98413.33;;;-2.09;99.50
75247;BME280;63844;50.042;19.224;2024-01-07T03:28:16;98413.33;;;-2.08;99.59
75247;BME280;63844;50.042;19.224;2024-01-07T03:29:56;98417.34;;;-2.09;99.83
75247;BME280;63844;50.042;19.224;2024-01-07T03:31:37;98416.79;;;-2.08;100.00
75247;BME280;63844;50.042;19.224;2024-01-07T03:33:14;98415.14;;;-2.11;99.95
75247;BME280;63844;50.042;19.224;2024-01-07T03:34:51;98415.33;;;-2.12;100.00
75247;BME280;63844;50.042;19.224;2024-01-07T03:36:30;98419.91;;;-2.15;99.99
75247;BME280;63844;50.042;19.224;2024-01-07T03:38:06;98417.67;;;-2.16;99.88
75247;BME280;63844;50.042;19.224;2024-01-07T03:39:48;98421.08;;;-2.13;99.88
75247;BME280;63844;50.042;19.224;2024-01-07T03:41:29;98421.50;;;-2.16;99.97
75247;BME280;63844;50.042;19.224;2024-01-07T03:43:06;98423.45;;;-2.18;99.86
75247;BME280;63844;50.042;19.224;2024-01-07T03:44:45;98423.35;;;-2.21;99.58
75247;BME280;63844;50.042;19.224;2024-01-07T03:46:22;98422.39;;;-2.24;99.64
75247;BME280;63844;50.042;19.224;2024-01-07T03:47:58;98421.94;;;-2.28;99.40
75247;BME280;63844;50.042;19.224;2024-01-07T03:49:38;98424.46;;;-2.32;99.51
75247;BME280;63844;50.042;19.224;2024-01-07T03:51:14;98425.38;;;-2.34;99.36
75247;BME280;63844;50.042;19.224;2024-01-07T03:52:51;98426.98;;;-2.36;99.32
75247;BME280;63844;50.042;19.224;2024-01-07T03:54:28;98428.23;;;-2.37;99.06
75247;BME280;63844;50.042;19.224;2024-01-07T03:56:07;98426.09;;;-2.41;98.54
75247;BME280;63844;50.042;19.224;2024-01-07T03:57:43;98427.67;;;-2.43;98.62
75247;BME280;63844;50.042;19.224;2024-01-07T03:59:20;98427.83;;;-2.42;98.55
75247;BME280;63844;50.042;19.224;2024-01-07T04:00:59;98425.36;;;-2.40;98.62
75247;BME280;63844;50.042;19.224;2024-01-07T04:02:36;98428.69;;;-2.42;99.04
75247;BME280;63844;50.042;19.224;2024-01-07T04:04:13;98429.36;;;-2.41;99.37
75247;BME280;63844;50.042;19.224;2024-01-07T04:05:52;98434.45;;;-2.44;99.39
75247;BME280;63844;50.042;19.224;2024-01-07T04:07:29;98437.10;;;-2.46;99.16
75247;BME280;63844;50.042;19.224;2024-01-07T04:09:06;98439.98;;;-2.43;99.57
75247;BME280;63844;50.042;19.224;2024-01-07T04:10:44;98442.08;;;-2.44;99.48
75247;BME280;63844;50.042;19.224;2024-01-07T04:12:21;98441.70;;;-2.42;99.74
75247;BME280;63844;50.042;19.224;2024-01-07T04:13:57;98441.98;;;-2.47;99.27
75247;BME280;63844;50.042;19.224;2024-01-07T04:15:34;98447.66;;;-2.45;99.71
75247;BME280;63844;50.042;19.224;2024-01-07T04:17:13;98443.86;;;-2.46;99.90
75247;BME280;63844;50.042;19.224;2024-01-07T04:18:50;98445.17;;;-2.51;99.14
75247;BME280;63844;50.042;19.224;2024-01-07T04:20:27;98445.06;;;-2.46;99.55
75247;BME280;63844;50.042;19.224;2024-01-07T04:22:06;98444.45;;;-2.50;99.89
75247;BME280;63844;50.042;19.224;2024-01-07T04:23:42;98445.48;;;-2.49;99.81
75247;BME280;63844;50.042;19.224;2024-01-07T04:25:20;98447.89;;;-2.48;99.70
75247;BME280;63844;50.042;19.224;2024-01-07T04:26:56;98447.76;;;-2.51;98.86
75247;BME280;63844;50.042;19.224;2024-01-07T04:28:33;98448.45;;;-2.51;98.75
75247;BME280;63844;50.042;19.224;2024-01-07T04:30:12;98452.78;;;-2.50;98.43
75247;BME280;63844;50.042;19.224;2024-01-07T04:31:54;98454.50;;;-2.50;98.35
75247;BME280;63844;50.042;19.224;2024-01-07T04:33:30;98454.16;;;-2.58;98.20
75247;BME280;63844;50.042;19.224;2024-01-07T04:35:07;98459.63;;;-2.62;97.97
75247;BME280;63844;50.042;19.224;2024-01-07T04:36:44;98457.08;;;-2.64;97.80
75247;BME280;63844;50.042;19.224;2024-01-07T04:38:20;98455.70;;;-2.64;97.77
75247;BME280;63844;50.042;19.224;2024-01-07T04:39:57;98460.19;;;-2.65;98.14
75247;BME280;63844;50.042;19.224;2024-01-07T04:41:33;98461.95;;;-2.65;98.21
75247;BME280;63844;50.042;19.224;2024-01-07T04:43:10;98466.16;;;-2.68;97.80
75247;BME280;63844;50.042;19.224;2024-01-07T04:44:47;98466.56;;;-2.71;97.57
75247;BME280;63844;50.042;19.224;2024-01-07T04:46:23;98469.15;;;-2.70;97.85
75247;BME280;63844;50.042;19.224;2024-01-07T04:48:06;98469.84;;;-2.70;98.19
75247;BME280;63844;50.042;19.224;2024-01-07T04:49:45;98472.94;;;-2.69;98.31
75247;BME280;63844;50.042;19.224;2024-01-07T04:51:23;98475.22;;;-2.70;97.95
75247;BME280;63844;50.042;19.224;2024-01-07T04:53:00;98479.80;;;-2.75;97.81
75247;BME280;63844;50.042;19.224;2024-01-07T04:54:36;98479.13;;;-2.75;97.64
75247;BME280;63844;50.042;19.224;2024-01-07T04:56:13;98476.83;;;-2.73;98.12
75247;BME280;63844;50.042;19.224;2024-01-07T04:57:49;98478.25;;;-2.75;97.78
75247;BME280;63844;50.042;19.224;2024-01-07T04:59:26;98482.40;;;-2.74;98.04
75247;BME280;63844;50.042;19.224;2024-01-07T05:01:03;98479.61;;;-2.74;97.94
75247;BME280;63844;50.042;19.224;2024-01-07T05:02:39;98478.61;;;-2.75;97.86
75247;BME280;63844;50.042;19.224;2024-01-07T05:04:16;98479.67;;;-2.77;97.49
75247;BME280;63844;50.042;19.224;2024-01-07T05:05:52;98481.58;;;-2.76;97.64
75247;BME280;63844;50.042;19.224;2024-01-07T05:07:29;98487.04;;;-2.81;97.17
75247;BME280;63844;50.042;19.224;2024-01-07T05:09:05;98487.30;;;-2.85;97.09
75247;BME280;63844;50.042;19.224;2024-01-07T05:10:42;98488.83;;;-2.84;97.84
75247;BME280;63844;50.042;19.224;2024-01-07T05:12:18;98489.02;;;-2.84;97.60
75247;BME280;63844;50.042;19.224;2024-01-07T05:14:05;98490.49;;;-2.81;98.05
75247;BME280;63844;50.042;19.224;2024-01-07T05:15:41;98491.75;;;-2.83;97.35
75247;BME280;63844;50.042;19.224;2024-01-07T05:17:18;98493.80;;;-2.82;97.39
75247;BME280;63844;50.042;19.224;2024-01-07T05:18:54;98495.90;;;-2.83;97.37
75247;BME280;63844;50.042;19.224;2024-01-07T05:20:31;98496.94;;;-2.82;97.40
75247;BME280;63844;50.042;19.224;2024-01-07T05:22:22;98496.85;;;-2.86;96.89
75247;BME280;63844;50.042;19.224;2024-01-07T05:23:58;98499.56;;;-2.84;97.76
75247;BME280;63844;50.042;19.224;2024-01-07T05:25:36;98500.77;;;-2.83;98.02
75247;BME280;63844;50.042;19.224;2024-01-07T05:27:12;98500.14;;;-2.86;97.35
75247;BME280;63844;50.042;19.224;2024-01-07T05:28:52;98503.23;;;-2.85;97.59
75247;BME280;63844;50.042;19.224;2024-01-07T05:30:29;98503.00;;;-2.83;97.69
75247;BME280;63844;50.042;19.224;2024-01-07T05:32:08;98504.90;;;-2.82;97.78
75247;BME280;63844;50.042;19.224;2024-01-07T05:33:45;98506.13;;;-2.83;98.32
75247;BME280;63844;50.042;19.224;2024-01-07T05:35:24;98507.28;;;-2.88;97.51
75247;BME280;63844;50.042;19.224;2024-01-07T05:37:01;98509.86;;;-2.88;97.52
75247;BME280;63844;50.042;19.224;2024-01-07T05:38:37;98510.70;;;-2.87;98.00
75247;BME280;63844;50.042;19.224;2024-01-07T05:40:14;98509.56;;;-2.90;97.49
75247;BME280;63844;50.042;19.224;2024-01-07T05:41:51;98508.57;;;-2.93;97.04
75247;BME280;63844;50.042;19.224;2024-01-07T05:43:27;98512.02;;;-2.92;96.96
75247;BME280;63844;50.042;19.224;2024-01-07T05:45:08;98514.12;;;-2.93;97.01
75247;BME280;63844;50.042;19.224;2024-01-07T05:46:46;98513.59;;;-2.92;97.16
75247;BME280;63844;50.042;19.224;2024-01-07T05:48:25;98513.80;;;-2.95;96.80
75247;BME280;63844;50.042;19.224;2024-01-07T05:50:01;98516.58;;;-2.95;97.06
75247;BME280;63844;50.042;19.224;2024-01-07T05:51:40;98514.64;;;-2.93;97.67
75247;BME280;63844;50.042;19.224;2024-01-07T05:53:19;98516.15;;;-2.91;97.89
75247;BME280;63844;50.042;19.224;2024-01-07T05:54:55;98517.04;;;-2.91;97.62
75247;BME280;63844;50.042;19.224;2024-01-07T05:56:32;98516.17;;;-2.91;97.65
75247;BME280;63844;50.042;19.224;2024-01-07T05:58:08;98518.36;;;-2.88;98.15
75247;BME280;63844;50.042;19.224;2024-01-07T05:59:47;98520.11;;;-2.89;98.43
75247;BME280;63844;50.042;19.224;2024-01-07T06:01:31;98522.15;;;-2.88;98.24
75247;BME280;63844;50.042;19.224;2024-01-07T06:03:10;98521.44;;;-2.86;98.65
75247;BME280;63844;50.042;19.224;2024-01-07T06:04:47;98525.29;;;-2.88;98.22
75247;BME280;63844;50.042;19.224;2024-01-07T06:06:26;98524.05;;;-2.87;98.14
75247;BME280;63844;50.042;19.224;2024-01-07T06:08:02;98523.36;;;-2.88;98.23
75247;BME280;63844;50.042;19.224;2024-01-07T06:09:39;98526.31;;;-2.87;98.21
75247;BME280;63844;50.042;19.224;2024-01-07T06:11:16;98523.34;;;-2.86;98.53
75247;BME280;63844;50.042;19.224;2024-01-07T06:12:56;98529.24;;;-2.87;98.31
75247;BME280;63844;50.042;19.224;2024-01-07T06:14:35;98532.73;;;-2.88;98.02
75247;BME280;63844;50.042;19.224;2024-01-07T06:16:21;98533.09;;;-2.89;97.78
75247;BME280;63844;50.042;19.224;2024-01-07T06:18:05;98539.19;;;-2.91;97.65
75247;BME280;63844;50.042;19.224;2024-01-07T06:19:42;98537.11;;;-2.92;97.87
75247;BME280;63844;50.042;19.224;2024-01-07T06:21:19;98539.25;;;-2.95;97.20
75247;BME280;63844;50.042;19.224;2024-01-07T06:22:55;98541.55;;;-2.97;97.33
75247;BME280;63844;50.042;19.224;2024-01-07T06:24:32;98545.31;;;-2.95;97.92
75247;BME280;63844;50.042;19.224;2024-01-07T06:26:08;98545.14;;;-2.95;97.88
75247;BME280;63844;50.042;19.224;2024-01-07T06:27:45;98547.41;;;-2.96;97.96
75247;BME280;63844;50.042;19.224;2024-01-07T06:29:22;98548.98;;;-2.96;98.21
75247;BME280;63844;50.042;19.224;2024-01-07T06:31:06;98549.85;;;-2.97;97.87
75247;BME280;63844;50.042;19.224;2024-01-07T06:32:43;98553.31;;;-2.97;97.54
75247;BME280;63844;50.042;19.224;2024-01-07T06:34:21;98552.95;;;-2.96;97.31
75247;BME280;63844;50.042;19.224;2024-01-07T06:35:58;98556.31;;;-2.99;96.59
75247;BME280;63844;50.042;19.224;2024-01-07T06:37:35;98559.27;;;-3.00;96.44
75247;BME280;63844;50.042;19.224;2024-01-07T06:39:11;98559.45;;;-3.01;96.95
75247;BME280;63844;50.042;19.224;2024-01-07T06:40:48;98564.38;;;-3.05;96.75
75247;BME280;63844;50.042;19.224;2024-01-07T06:42:24;98562.11;;;-3.04;96.76
75247;BME280;63844;50.042;19.224;2024-01-07T06:44:02;98564.54;;;-3.05;96.69
75247;BME280;63844;50.042;19.224;2024-01-07T06:45:39;98564.89;;;-3.05;96.71
75247;BME280;63844;50.042;19.224;2024-01-07T06:47:19;98567.50;;;-3.06;96.62
75247;BME280;63844;50.042;19.224;2024-01-07T06:48:56;98567.84;;;-3.06;96.94
75247;BME280;63844;50.042;19.224;2024-01-07T06:50:32;98563.73;;;-3.08;96.84
75247;BME280;63844;50.042;19.224;2024-01-07T06:52:09;98568.42;;;-3.09;97.19
75247;BME280;63844;50.042;19.224;2024-01-07T06:53:46;98566.02;;;-3.10;97.19
75247;BME280;63844;50.042;19.224;2024-01-07T06:55:22;98567.32;;;-3.15;96.19
75247;BME280;63844;50.042;19.224;2024-01-07T06:56:59;98569.81;;;-3.18;95.99
75247;BME280;63844;50.042;19.224;2024-01-07T06:58:35;98571.75;;;-3.21;95.52
75247;BME280;63844;50.042;19.224;2024-01-07T07:00:15;98576.02;;;-3.18;95.76
75247;BME280;63844;50.042;19.224;2024-01-07T07:01:54;98576.49;;;-3.14;95.55
75247;BME280;63844;50.042;19.224;2024-01-07T07:03:32;98580.41;;;-3.11;95.95
75247;BME280;63844;50.042;19.224;2024-01-07T07:05:09;98585.27;;;-3.11;95.81
75247;BME280;63844;50.042;19.224;2024-01-07T07:06:45;98587.01;;;-3.12;96.03
75247;BME280;63844;50.042;19.224;2024-01-07T07:08:22;98589.48;;;-3.14;96.10
75247;BME280;63844;50.042;19.224;2024-01-07T07:09:59;98588.82;;;-3.18;95.84
75247;BME280;63844;50.042;19.224;2024-01-07T07:11:36;98591.70;;;-3.13;96.30
75247;BME280;63844;50.042;19.224;2024-01-07T07:13:15;98593.75;;;-3.12;96.54
75247;BME280;63844;50.042;19.224;2024-01-07T07:14:54;98596.04;;;-3.14;95.64
75247;BME280;63844;50.042;19.224;2024-01-07T07:16:31;98596.21;;;-3.14;95.54
75247;BME280;63844;50.042;19.224;2024-01-07T07:18:07;98594.13;;;-3.14;95.99
75247;BME280;63844;50.042;19.224;2024-01-07T07:19:47;98593.77;;;-3.13;96.50
75247;BME280;63844;50.042;19.224;2024-01-07T07:21:24;98596.57;;;-3.15;96.06
75247;BME280;63844;50.042;19.224;2024-01-07T07:23:11;98597.89;;;-3.11;96.53
75247;BME280;63844;50.042;19.224;2024-01-07T07:24:48;98600.13;;;-3.10;96.64
75247;BME280;63844;50.042;19.224;2024-01-07T07:26:24;98599.09;;;-3.10;96.46
75247;BME280;63844;50.042;19.224;2024-01-07T07:28:01;98600.52;;;-3.12;95.86
75247;BME280;63844;50.042;19.224;2024-01-07T07:29:40;98601.08;;;-3.14;95.18
75247;BME280;63844;50.042;19.224;2024-01-07T07:31:16;98601.72;;;-3.12;95.63
75247;BME280;63844;50.042;19.224;2024-01-07T07:32:53;98603.02;;;-3.17;95.25
75247;BME280;63844;50.042;19.224;2024-01-07T07:34:29;98604.06;;;-3.18;95.43
75247;BME280;63844;50.042;19.224;2024-01-07T07:36:11;98603.91;;;-3.19;95.70
75247;BME280;63844;50.042;19.224;2024-01-07T07:37:47;98601.46;;;-3.17;96.01
75247;BME280;63844;50.042;19.224;2024-01-07T07:39:24;98606.27;;;-3.16;95.51
75247;BME280;63844;50.042;19.224;2024-01-07T07:41:00;98606.79;;;-3.15;95.24
75247;BME280;63844;50.042;19.224;2024-01-07T07:42:37;98606.06;;;-3.13;94.86
75247;BME280;63844;50.042;19.224;2024-01-07T07:44:16;98611.12;;;-3.16;94.88
75247;BME280;63844;50.042;19.224;2024-01-07T07:45:52;98614.19;;;-3.12;95.35
75247;BME280;63844;50.042;19.224;2024-01-07T07:47:31;98614.52;;;-3.12;95.75
75247;BME280;63844;50.042;19.224;2024-01-07T07:49:23;98617.99;;;-3.13;94.75
75247;BME280;63844;50.042;19.224;2024-01-07T07:51:05;98623.17;;;-3.12;94.59
75247;BME280;63844;50.042;19.224;2024-01-07T07:52:42;98624.16;;;-3.09;94.21
75247;BME280;63844;50.042;19.224;2024-01-07T07:54:22;98626.84;;;-3.04;94.78
75247;BME280;63844;50.042;19.224;2024-01-07T07:56:01;98623.96;;;-3.08;94.34
75247;BME280;63844;50.042;19.224;2024-01-07T07:57:37;98624.66;;;-3.08;94.09
75247;BME280;63844;50.042;19.224;2024-01-07T07:59:14;98627.54;;;-3.03;93.97
75247;BME280;63844;50.042;19.224;2024-01-07T08:00:58;98624.98;;;-3.07;93.33
75247;BME280;63844;50.042;19.224;2024-01-07T08:02:34;98629.99;;;-3.05;93.06
75247;BME280;63844;50.042;19.224;2024-01-07T08:04:14;98625.94;;;-3.02;93.51
75247;BME280;63844;50.042;19.224;2024-01-07T08:05:50;98628.37;;;-3.02;93.91
75247;BME280;63844;50.042;19.224;2024-01-07T08:07:31;98623.92;;;-3.06;93.90
75247;BME280;63844;50.042;19.224;2024-01-07T08:09:08;98627.56;;;-3.06;93.97
75247;BME280;63844;50.042;19.224;2024-01-07T08:10:47;98627.14;;;-3.11;93.28
75247;BME280;63844;50.042;19.224;2024-01-07T08:12:25;98632.02;;;-3.13;93.23
75247;BME280;63844;50.042;19.224;2024-01-07T08:14:02;98632.11;;;-3.08;94.49
75247;BME280;63844;50.042;19.224;2024-01-07T08:15:45;98635.74;;;-3.08;94.35
75247;BME280;63844;50.042;19.224;2024-01-07T08:17:21;98639.56;;;-3.08;94.40
75247;BME280;63844;50.042;19.224;2024-01-07T08:18:58;98642.33;;;-3.08;94.59
75247;BME280;63844;50.042;19.224;2024-01-07T08:20:42;98643.84;;;-3.06;94.70
75247;BME280;63844;50.042;19.224;2024-01-07T08:22:19;98647.82;;;-3.06;94.33
75247;BME280;63844;50.042;19.224;2024-01-07T08:23:56;98648.68;;;-3.06;94.44
75247;BME280;63844;50.042;19.224;2024-01-07T08:25:35;98649.09;;;-3.08;93.46
75247;BME280;63844;50.042;19.224;2024-01-07T08:27:11;98647.85;;;-3.07;93.21
75247;BME280;63844;50.042;19.224;2024-01-07T08:28:48;98649.30;;;-3.11;93.05